sensor_id;sensor_type;location;lat;lon;timestamp;P1;durP1;ratioP1;P2;durP2;ratioP2
7340;SDS011;6870;50.944;6.932;2022-09-09T00:02:02;2.50;;;1.17;;
7340;SDS011;6870;50.944;6.932;2022-09-09T00:04:41;2.03;;;1.20;;
7340;SDS011;6870;50.944;6.932;2022-09-09T00:07:13;2.60;;;1.30;;
7340;SDS011;6870;50.944;6.932;2022-09-09T00:09:50;2.70;;;1.00;;
7340;SDS011;6870;50.944;6.932;2022-09-09T00:12:34;1.33;;;1.07;;
7340;SDS011;6870;50.944;6.932;2022-09-09T00:15:11;2.63;;;1.10;;
7340;SDS011;6870;50.944;6.932;2022-09-09T00:17:45;2.10;;;1.10;;
7340;SDS011;6870;50.944;6.932;2022-09-09T00:20:21;2.33;;;1.00;;
7340;SDS011;6870;50.944;6.932;2022-09-09T00:22:57;1.40;;;1.00;;
7340;SDS011;6870;50.944;6.932;2022-09-09T00:25:34;1.90;;;0.97;;
7340;SDS011;6870;50.944;6.932;2022-09-09T00:28:13;4.70;;;1.10;;
7340;SDS011;6870;50.944;6.932;2022-09-09T00:30:46;2.03;;;1.10;;
7340;SDS011;6870;50.944;6.932;2022-09-09T00:33:17;1.43;;;0.70;;
7340;SDS011;6870;50.944;6.932;2022-09-09T00:35:49;1.37;;;0.90;;
7340;SDS011;6870;50.944;6.932;2022-09-09T00:38:21;1.53;;;0.80;;
7340;SDS011;6870;50.944;6.932;2022-09-09T00:40:55;1.67;;;1.10;;
7340;SDS011;6870;50.944;6.932;2022-09-09T00:43:32;1.17;;;0.80;;
7340;SDS011;6870;50.944;6.932;2022-09-09T00:46:09;2.73;;;0.83;;
7340;SDS011;6870;50.944;6.932;2022-09-09T00:48:54;1.40;;;1.00;;
7340;SDS011;6870;50.944;6.932;2022-09-09T00:51:36;1.40;;;0.90;;
7340;SDS011;6870;50.944;6.932;2022-09-09T00:54:27;3.23;;;0.93;;
7340;SDS011;6870;50.944;6.932;2022-09-09T00:57:06;2.80;;;0.97;;
7340;SDS011;6870;50.944;6.932;2022-09-09T00:59:46;15.33;;;1.80;;
7340;SDS011;6870;50.944;6.932;2022-09-09T01:02:24;1.87;;;1.10;;
7340;SDS011;6870;50.944;6.932;2022-09-09T01:05:00;7.50;;;1.37;;
7340;SDS011;6870;50.944;6.932;2022-09-09T01:07:34;3.30;;;0.90;;
7340;SDS011;6870;50.944;6.932;2022-09-09T01:10:03;1.57;;;0.90;;
7340;SDS011;6870;50.944;6.932;2022-09-09T01:12:40;2.20;;;0.90;;
7340;SDS011;6870;50.944;6.932;2022-09-09T01:15:10;6.10;;;1.00;;
7340;SDS011;6870;50.944;6.932;2022-09-09T01:17:50;8.50;;;1.17;;
7340;SDS011;6870;50.944;6.932;2022-09-09T01:20:27;4.10;;;1.10;;
7340;SDS011;6870;50.944;6.932;2022-09-09T01:23:16;2.33;;;1.03;;
7340;SDS011;6870;50.944;6.932;2022-09-09T01:26:11;3.40;;;0.87;;
7340;SDS011;6870;50.944;6.932;2022-09-09T01:28:46;1.60;;;1.00;;
7340;SDS011;6870;50.944;6.932;2022-09-09T01:31:19;0.93;;;0.77;;
7340;SDS011;6870;50.944;6.932;2022-09-09T01:33:54;3.53;;;1.10;;
7340;SDS011;6870;50.944;6.932;2022-09-09T01:36:24;2.97;;;0.97;;
7340;SDS011;6870;50.944;6.932;2022-09-09T01:38:59;6.53;;;1.20;;
7340;SDS011;6870;50.944;6.932;2022-09-09T01:41:29;1.67;;;0.90;;
7340;SDS011;6870;50.944;6.932;2022-09-09T01:43:57;2.40;;;1.17;;
7340;SDS011;6870;50.944;6.932;2022-09-09T01:46:25;1.80;;;0.90;;
7340;SDS011;6870;50.944;6.932;2022-09-09T01:48:55;2.60;;;0.90;;
7340;SDS011;6870;50.944;6.932;2022-09-09T01:51:24;2.20;;;1.03;;
7340;SDS011;6870;50.944;6.932;2022-09-09T01:53:52;1.60;;;0.80;;
7340;SDS011;6870;50.944;6.932;2022-09-09T01:56:22;3.20;;;0.90;;
7340;SDS011;6870;50.944;6.932;2022-09-09T01:59:07;3.83;;;0.87;;
7340;SDS011;6870;50.944;6.932;2022-09-09T02:01:51;1.43;;;1.03;;
7340;SDS011;6870;50.944;6.932;2022-09-09T02:04:35;3.63;;;1.20;;
7340;SDS011;6870;50.944;6.932;2022-09-09T02:07:10;2.13;;;1.00;;
7340;SDS011;6870;50.944;6.932;2022-09-09T02:09:59;2.87;;;0.90;;
7340;SDS011;6870;50.944;6.932;2022-09-09T02:12:34;11.63;;;1.27;;
7340;SDS011;6870;50.944;6.932;2022-09-09T02:15:07;4.00;;;1.47;;
7340;SDS011;6870;50.944;6.932;2022-09-09T02:17:45;7.47;;;1.03;;
7340;SDS011;6870;50.944;6.932;2022-09-09T02:20:17;3.97;;;1.23;;
7340;SDS011;6870;50.944;6.932;2022-09-09T02:22:47;2.70;;;0.90;;
7340;SDS011;6870;50.944;6.932;2022-09-09T02:25:19;2.33;;;0.90;;
7340;SDS011;6870;50.944;6.932;2022-09-09T02:27:51;3.57;;;0.80;;
7340;SDS011;6870;50.944;6.932;2022-09-09T02:30:19;1.60;;;0.77;;
7340;SDS011;6870;50.944;6.932;2022-09-09T02:32:48;2.80;;;1.37;;
7340;SDS011;6870;50.944;6.932;2022-09-09T02:35:23;2.10;;;0.80;;
7340;SDS011;6870;50.944;6.932;2022-09-09T02:37:53;4.63;;;1.10;;
7340;SDS011;6870;50.944;6.932;2022-09-09T02:40:25;3.97;;;0.80;;
7340;SDS011;6870;50.944;6.932;2022-09-09T02:42:54;2.27;;;0.90;;
7340;SDS011;6870;50.944;6.932;2022-09-09T02:45:23;11.20;;;1.43;;
7340;SDS011;6870;50.944;6.932;2022-09-09T02:47:58;4.97;;;1.00;;
7340;SDS011;6870;50.944;6.932;2022-09-09T02:50:32;2.20;;;1.00;;
7340;SDS011;6870;50.944;6.932;2022-09-09T02:53:06;1.43;;;0.63;;
7340;SDS011;6870;50.944;6.932;2022-09-09T02:55:40;1.60;;;0.93;;
7340;SDS011;6870;50.944;6.932;2022-09-09T02:58:14;1.30;;;0.80;;
7340;SDS011;6870;50.944;6.932;2022-09-09T03:00:45;2.17;;;0.90;;
7340;SDS011;6870;50.944;6.932;2022-09-09T03:03:15;1.27;;;0.60;;
7340;SDS011;6870;50.944;6.932;2022-09-09T03:05:45;1.53;;;0.83;;
7340;SDS011;6870;50.944;6.932;2022-09-09T03:08:13;1.93;;;1.27;;
7340;SDS011;6870;50.944;6.932;2022-09-09T03:10:42;1.90;;;0.90;;
7340;SDS011;6870;50.944;6.932;2022-09-09T03:13:10;2.73;;;1.17;;
7340;SDS011;6870;50.944;6.932;2022-09-09T03:15:42;2.20;;;1.00;;
7340;SDS011;6870;50.944;6.932;2022-09-09T03:18:11;2.53;;;0.77;;
7340;SDS011;6870;50.944;6.932;2022-09-09T03:20:39;2.03;;;0.90;;
7340;SDS011;6870;50.944;6.932;2022-09-09T03:23:08;2.33;;;1.00;;
7340;SDS011;6870;50.944;6.932;2022-09-09T03:25:45;1.47;;;0.93;;
7340;SDS011;6870;50.944;6.932;2022-09-09T03:28:15;1.40;;;0.83;;
7340;SDS011;6870;50.944;6.932;2022-09-09T03:30:44;1.00;;;0.60;;
7340;SDS011;6870;50.944;6.932;2022-09-09T03:33:12;1.63;;;0.80;;
7340;SDS011;6870;50.944;6.932;2022-09-09T03:35:44;1.77;;;0.90;;
7340;SDS011;6870;50.944;6.932;2022-09-09T03:38:14;1.80;;;0.97;;
7340;SDS011;6870;50.944;6.932;2022-09-09T03:40:48;1.10;;;0.73;;
7340;SDS011;6870;50.944;6.932;2022-09-09T03:43:17;2.20;;;1.20;;
7340;SDS011;6870;50.944;6.932;2022-09-09T03:45:47;1.40;;;0.80;;
7340;SDS011;6870;50.944;6.932;2022-09-09T03:48:16;2.13;;;1.10;;
7340;SDS011;6870;50.944;6.932;2022-09-09T03:50:45;2.40;;;0.90;;
7340;SDS011;6870;50.944;6.932;2022-09-09T03:53:14;2.87;;;1.17;;
7340;SDS011;6870;50.944;6.932;2022-09-09T03:55:43;1.93;;;0.90;;
7340;SDS011;6870;50.944;6.932;2022-09-09T03:58:12;3.73;;;1.00;;
7340;SDS011;6870;50.944;6.932;2022-09-09T04:00:41;1.00;;;0.60;;
7340;SDS011;6870;50.944;6.932;2022-09-09T04:03:12;1.23;;;0.80;;
7340;SDS011;6870;50.944;6.932;2022-09-09T04:05:41;1.13;;;0.63;;
7340;SDS011;6870;50.944;6.932;2022-09-09T04:08:09;0.80;;;0.50;;
7340;SDS011;6870;50.944;6.932;2022-09-09T04:10:38;2.20;;;0.80;;
7340;SDS011;6870;50.944;6.932;2022-09-09T04:13:06;2.40;;;1.10;;
7340;SDS011;6870;50.944;6.932;2022-09-09T04:15:34;1.60;;;0.80;;
7340;SDS011;6870;50.944;6.932;2022-09-09T04:18:02;1.27;;;0.80;;
7340;SDS011;6870;50.944;6.932;2022-09-09T04:20:33;1.97;;;0.60;;
7340;SDS011;6870;50.944;6.932;2022-09-09T04:23:01;1.07;;;0.77;;
7340;SDS011;6870;50.944;6.932;2022-09-09T04:25:29;2.07;;;0.80;;
7340;SDS011;6870;50.944;6.932;2022-09-09T04:27:57;1.97;;;0.97;;
7340;SDS011;6870;50.944;6.932;2022-09-09T04:30:26;3.03;;;0.97;;
7340;SDS011;6870;50.944;6.932;2022-09-09T04:32:54;1.47;;;0.90;;
7340;SDS011;6870;50.944;6.932;2022-09-09T04:35:23;1.93;;;0.90;;
7340;SDS011;6870;50.944;6.932;2022-09-09T04:37:54;2.20;;;0.90;;
7340;SDS011;6870;50.944;6.932;2022-09-09T04:40:22;1.33;;;0.63;;
7340;SDS011;6870;50.944;6.932;2022-09-09T04:42:51;3.20;;;0.83;;
7340;SDS011;6870;50.944;6.932;2022-09-09T04:45:19;2.17;;;0.70;;
7340;SDS011;6870;50.944;6.932;2022-09-09T04:47:47;2.10;;;0.80;;
7340;SDS011;6870;50.944;6.932;2022-09-09T04:50:15;1.40;;;0.60;;
7340;SDS011;6870;50.944;6.932;2022-09-09T04:52:43;2.90;;;0.90;;
7340;SDS011;6870;50.944;6.932;2022-09-09T04:55:12;3.03;;;1.10;;
7340;SDS011;6870;50.944;6.932;2022-09-09T04:57:40;2.20;;;1.00;;
7340;SDS011;6870;50.944;6.932;2022-09-09T05:00:09;2.80;;;1.07;;
7340;SDS011;6870;50.944;6.932;2022-09-09T05:02:38;2.93;;;1.13;;
7340;SDS011;6870;50.944;6.932;2022-09-09T05:05:08;2.00;;;0.90;;
7340;SDS011;6870;50.944;6.932;2022-09-09T05:07:37;1.30;;;0.63;;
7340;SDS011;6870;50.944;6.932;2022-09-09T05:10:05;14.77;;;2.07;;
7340;SDS011;6870;50.944;6.932;2022-09-09T05:12:35;7.13;;;1.33;;
7340;SDS011;6870;50.944;6.932;2022-09-09T05:15:03;8.07;;;1.40;;
7340;SDS011;6870;50.944;6.932;2022-09-09T05:17:33;7.00;;;1.20;;
7340;SDS011;6870;50.944;6.932;2022-09-09T05:20:01;3.10;;;1.33;;
7340;SDS011;6870;50.944;6.932;2022-09-09T05:22:35;2.40;;;1.10;;
7340;SDS011;6870;50.944;6.932;2022-09-09T05:25:04;3.90;;;1.50;;
7340;SDS011;6870;50.944;6.932;2022-09-09T05:27:34;3.80;;;1.00;;
7340;SDS011;6870;50.944;6.932;2022-09-09T05:30:02;2.73;;;1.03;;
7340;SDS011;6870;50.944;6.932;2022-09-09T05:32:31;4.97;;;1.70;;
7340;SDS011;6870;50.944;6.932;2022-09-09T05:35:00;4.00;;;1.00;;
7340;SDS011;6870;50.944;6.932;2022-09-09T05:37:28;3.07;;;1.50;;
7340;SDS011;6870;50.944;6.932;2022-09-09T05:39:58;8.40;;;1.73;;
7340;SDS011;6870;50.944;6.932;2022-09-09T05:42:29;2.87;;;1.00;;
7340;SDS011;6870;50.944;6.932;2022-09-09T05:44:59;6.73;;;1.70;;
7340;SDS011;6870;50.944;6.932;2022-09-09T05:47:27;2.10;;;1.00;;
7340;SDS011;6870;50.944;6.932;2022-09-09T05:49:55;3.73;;;1.50;;
7340;SDS011;6870;50.944;6.932;2022-09-09T05:52:23;3.20;;;1.30;;
7340;SDS011;6870;50.944;6.932;2022-09-09T05:54:53;4.23;;;1.63;;
7340;SDS011;6870;50.944;6.932;2022-09-09T05:57:23;2.83;;;2.00;;
7340;SDS011;6870;50.944;6.932;2022-09-09T05:59:51;4.37;;;1.20;;
7340;SDS011;6870;50.944;6.932;2022-09-09T06:02:21;4.40;;;1.00;;
7340;SDS011;6870;50.944;6.932;2022-09-09T06:04:49;5.63;;;1.37;;
7340;SDS011;6870;50.944;6.932;2022-09-09T06:07:17;2.70;;;1.10;;
7340;SDS011;6870;50.944;6.932;2022-09-09T06:09:46;3.20;;;1.20;;
7340;SDS011;6870;50.944;6.932;2022-09-09T06:12:14;3.63;;;1.00;;
7340;SDS011;6870;50.944;6.932;2022-09-09T06:14:42;3.17;;;1.10;;
7340;SDS011;6870;50.944;6.932;2022-09-09T06:17:11;6.50;;;1.40;;
7340;SDS011;6870;50.944;6.932;2022-09-09T06:19:41;2.23;;;1.10;;
7340;SDS011;6870;50.944;6.932;2022-09-09T06:22:09;4.80;;;1.80;;
7340;SDS011;6870;50.944;6.932;2022-09-09T06:24:38;3.93;;;1.00;;
7340;SDS011;6870;50.944;6.932;2022-09-09T06:27:06;3.10;;;1.10;;
7340;SDS011;6870;50.944;6.932;2022-09-09T06:29:34;5.53;;;1.33;;
7340;SDS011;6870;50.944;6.932;2022-09-09T06:32:02;2.73;;;1.10;;
7340;SDS011;6870;50.944;6.932;2022-09-09T06:34:30;12.63;;;2.17;;
7340;SDS011;6870;50.944;6.932;2022-09-09T06:36:59;5.80;;;1.53;;
7340;SDS011;6870;50.944;6.932;2022-09-09T06:39:28;3.40;;;1.27;;
7340;SDS011;6870;50.944;6.932;2022-09-09T06:41:56;7.90;;;1.40;;
7340;SDS011;6870;50.944;6.932;2022-09-09T06:44:24;4.00;;;1.40;;
7340;SDS011;6870;50.944;6.932;2022-09-09T06:46:57;2.93;;;1.50;;
7340;SDS011;6870;50.944;6.932;2022-09-09T06:49:25;4.00;;;1.77;;
7340;SDS011;6870;50.944;6.932;2022-09-09T06:51:53;4.53;;;1.60;;
7340;SDS011;6870;50.944;6.932;2022-09-09T06:54:22;9.47;;;2.03;;
7340;SDS011;6870;50.944;6.932;2022-09-09T06:56:52;2.80;;;1.60;;
7340;SDS011;6870;50.944;6.932;2022-09-09T06:59:19;3.23;;;1.70;;
7340;SDS011;6870;50.944;6.932;2022-09-09T07:01:47;2.53;;;1.40;;
7340;SDS011;6870;50.944;6.932;2022-09-09T07:04:21;4.97;;;1.50;;
7340;SDS011;6870;50.944;6.932;2022-09-09T07:06:49;3.90;;;1.73;;
7340;SDS011;6870;50.944;6.932;2022-09-09T07:09:18;4.57;;;1.83;;
7340;SDS011;6870;50.944;6.932;2022-09-09T07:11:48;2.63;;;1.40;;
7340;SDS011;6870;50.944;6.932;2022-09-09T07:14:19;4.20;;;1.40;;
7340;SDS011;6870;50.944;6.932;2022-09-09T07:16:48;4.37;;;1.77;;
7340;SDS011;6870;50.944;6.932;2022-09-09T07:19:16;3.43;;;1.70;;
7340;SDS011;6870;50.944;6.932;2022-09-09T07:21:44;3.27;;;1.53;;
7340;SDS011;6870;50.944;6.932;2022-09-09T07:24:12;2.87;;;1.30;;
7340;SDS011;6870;50.944;6.932;2022-09-09T07:26:41;6.20;;;1.50;;
7340;SDS011;6870;50.944;6.932;2022-09-09T07:29:11;5.60;;;1.37;;
7340;SDS011;6870;50.944;6.932;2022-09-09T07:31:45;4.20;;;1.73;;
7340;SDS011;6870;50.944;6.932;2022-09-09T07:34:14;2.80;;;1.50;;
7340;SDS011;6870;50.944;6.932;2022-09-09T07:36:42;7.40;;;1.63;;
7340;SDS011;6870;50.944;6.932;2022-09-09T07:39:11;2.13;;;1.90;;
7340;SDS011;6870;50.944;6.932;2022-09-09T07:41:41;5.70;;;2.40;;
7340;SDS011;6870;50.944;6.932;2022-09-09T07:44:13;5.03;;;3.90;;
7340;SDS011;6870;50.944;6.932;2022-09-09T07:46:42;8.13;;;3.80;;
7340;SDS011;6870;50.944;6.932;2022-09-09T07:49:12;6.50;;;3.30;;
7340;SDS011;6870;50.944;6.932;2022-09-09T07:51:41;9.13;;;3.23;;
7340;SDS011;6870;50.944;6.932;2022-09-09T07:54:12;4.73;;;1.60;;
7340;SDS011;6870;50.944;6.932;2022-09-09T07:56:42;9.37;;;2.80;;
7340;SDS011;6870;50.944;6.932;2022-09-09T07:59:10;3.60;;;1.80;;
7340;SDS011;6870;50.944;6.932;2022-09-09T08:01:40;5.10;;;1.30;;
7340;SDS011;6870;50.944;6.932;2022-09-09T08:04:12;11.37;;;1.80;;
7340;SDS011;6870;50.944;6.932;2022-09-09T08:06:43;3.13;;;1.50;;
7340;SDS011;6870;50.944;6.932;2022-09-09T08:09:13;4.40;;;2.00;;
7340;SDS011;6870;50.944;6.932;2022-09-09T08:11:42;3.40;;;1.23;;
7340;SDS011;6870;50.944;6.932;2022-09-09T08:14:12;4.77;;;1.70;;
7340;SDS011;6870;50.944;6.932;2022-09-09T08:16:41;6.57;;;1.90;;
7340;SDS011;6870;50.944;6.932;2022-09-09T08:19:11;6.27;;;1.40;;
7340;SDS011;6870;50.944;6.932;2022-09-09T08:21:41;3.27;;;1.40;;
7340;SDS011;6870;50.944;6.932;2022-09-09T08:24:11;6.73;;;1.00;;
7340;SDS011;6870;50.944;6.932;2022-09-09T08:26:41;5.03;;;1.53;;
7340;SDS011;6870;50.944;6.932;2022-09-09T08:29:13;4.67;;;1.90;;
7340;SDS011;6870;50.944;6.932;2022-09-09T08:31:42;9.87;;;1.63;;
7340;SDS011;6870;50.944;6.932;2022-09-09T08:34:13;5.87;;;2.70;;
7340;SDS011;6870;50.944;6.932;2022-09-09T08:36:42;6.80;;;2.43;;
7340;SDS011;6870;50.944;6.932;2022-09-09T08:39:13;9.13;;;2.60;;
7340;SDS011;6870;50.944;6.932;2022-09-09T08:41:50;7.13;;;2.23;;
7340;SDS011;6870;50.944;6.932;2022-09-09T08:44:38;7.23;;;2.47;;
7340;SDS011;6870;50.944;6.932;2022-09-09T08:47:18;4.00;;;2.33;;
7340;SDS011;6870;50.944;6.932;2022-09-09T08:50:04;8.30;;;2.70;;
7340;SDS011;6870;50.944;6.932;2022-09-09T08:52:46;8.20;;;3.03;;
7340;SDS011;6870;50.944;6.932;2022-09-09T08:55:24;6.93;;;2.50;;
7340;SDS011;6870;50.944;6.932;2022-09-09T08:58:02;4.87;;;2.60;;
7340;SDS011;6870;50.944;6.932;2022-09-09T09:00:43;7.70;;;2.60;;
7340;SDS011;6870;50.944;6.932;2022-09-09T09:03:28;5.93;;;2.30;;
7340;SDS011;6870;50.944;6.932;2022-09-09T09:06:13;6.17;;;2.67;;
7340;SDS011;6870;50.944;6.932;2022-09-09T09:08:56;5.23;;;2.73;;
7340;SDS011;6870;50.944;6.932;2022-09-09T09:11:33;4.87;;;2.27;;
7340;SDS011;6870;50.944;6.932;2022-09-09T09:14:07;6.13;;;2.20;;
7340;SDS011;6870;50.944;6.932;2022-09-09T09:16:46;10.30;;;2.87;;
7340;SDS011;6870;50.944;6.932;2022-09-09T09:19:20;2.67;;;1.60;;
7340;SDS011;6870;50.944;6.932;2022-09-09T09:21:52;3.07;;;2.00;;
7340;SDS011;6870;50.944;6.932;2022-09-09T09:24:26;6.77;;;2.10;;
7340;SDS011;6870;50.944;6.932;2022-09-09T09:27:09;4.90;;;1.90;;
7340;SDS011;6870;50.944;6.932;2022-09-09T09:29:41;3.67;;;1.30;;
7340;SDS011;6870;50.944;6.932;2022-09-09T09:32:33;5.83;;;1.37;;
7340;SDS011;6870;50.944;6.932;2022-09-09T09:35:06;3.47;;;1.60;;
7340;SDS011;6870;50.944;6.932;2022-09-09T09:37:40;4.63;;;1.70;;
7340;SDS011;6870;50.944;6.932;2022-09-09T09:40:29;3.10;;;1.50;;
7340;SDS011;6870;50.944;6.932;2022-09-09T09:42:59;3.93;;;1.63;;
7340;SDS011;6870;50.944;6.932;2022-09-09T09:45:29;7.23;;;2.30;;
7340;SDS011;6870;50.944;6.932;2022-09-09T09:48:03;7.40;;;2.00;;
7340;SDS011;6870;50.944;6.932;2022-09-09T09:50:45;4.23;;;1.60;;
7340;SDS011;6870;50.944;6.932;2022-09-09T09:53:18;4.23;;;1.60;;
7340;SDS011;6870;50.944;6.932;2022-09-09T09:55:55;6.93;;;2.10;;
7340;SDS011;6870;50.944;6.932;2022-09-09T09:58:25;8.27;;;1.80;;
7340;SDS011;6870;50.944;6.932;2022-09-09T10:00:58;3.57;;;0.93;;
7340;SDS011;6870;50.944;6.932;2022-09-09T10:03:29;4.63;;;0.83;;
7340;SDS011;6870;50.944;6.932;2022-09-09T10:06:03;3.33;;;1.70;;
7340;SDS011;6870;50.944;6.932;2022-09-09T10:08:33;2.03;;;0.90;;
7340;SDS011;6870;50.944;6.932;2022-09-09T10:11:18;5.60;;;1.27;;
7340;SDS011;6870;50.944;6.932;2022-09-09T10:14:00;2.83;;;1.03;;
7340;SDS011;6870;50.944;6.932;2022-09-09T10:16:45;5.00;;;0.90;;
7340;SDS011;6870;50.944;6.932;2022-09-09T10:19:31;2.50;;;1.10;;
7340;SDS011;6870;50.944;6.932;2022-09-09T10:22:06;5.80;;;1.33;;
7340;SDS011;6870;50.944;6.932;2022-09-09T10:25:01;4.03;;;1.20;;
7340;SDS011;6870;50.944;6.932;2022-09-09T10:27:44;4.73;;;1.33;;
7340;SDS011;6870;50.944;6.932;2022-09-09T10:30:33;5.50;;;1.33;;
7340;SDS011;6870;50.944;6.932;2022-09-09T10:33:16;2.93;;;0.90;;
7340;SDS011;6870;50.944;6.932;2022-09-09T10:35:57;2.50;;;1.03;;
7340;SDS011;6870;50.944;6.932;2022-09-09T10:38:38;2.00;;;1.03;;
7340;SDS011;6870;50.944;6.932;2022-09-09T10:41:11;3.67;;;1.30;;
7340;SDS011;6870;50.944;6.932;2022-09-09T10:46:48;4.07;;;1.27;;
7340;SDS011;6870;50.944;6.932;2022-09-09T10:49:40;2.83;;;1.47;;
7340;SDS011;6870;50.944;6.932;2022-09-09T10:52:30;7.57;;;1.60;;
7340;SDS011;6870;50.944;6.932;2022-09-09T10:55:07;4.87;;;1.17;;
7340;SDS011;6870;50.944;6.932;2022-09-09T10:57:42;4.83;;;1.40;;
7340;SDS011;6870;50.944;6.932;2022-09-09T11:00:15;8.70;;;1.50;;
7340;SDS011;6870;50.944;6.932;2022-09-09T11:02:47;3.17;;;1.60;;
7340;SDS011;6870;50.944;6.932;2022-09-09T11:05:20;3.53;;;1.30;;
7340;SDS011;6870;50.944;6.932;2022-09-09T11:07:56;1.30;;;0.80;;
7340;SDS011;6870;50.944;6.932;2022-09-09T11:10:29;2.70;;;0.90;;
7340;SDS011;6870;50.944;6.932;2022-09-09T11:13:09;4.93;;;1.40;;
7340;SDS011;6870;50.944;6.932;2022-09-09T11:15:44;2.87;;;1.07;;
7340;SDS011;6870;50.944;6.932;2022-09-09T11:18:18;2.27;;;1.37;;
7340;SDS011;6870;50.944;6.932;2022-09-09T11:20:50;2.37;;;0.90;;
7340;SDS011;6870;50.944;6.932;2022-09-09T11:23:24;4.03;;;1.50;;
7340;SDS011;6870;50.944;6.932;2022-09-09T11:26:04;3.87;;;1.17;;
7340;SDS011;6870;50.944;6.932;2022-09-09T11:28:38;2.80;;;1.17;;
7340;SDS011;6870;50.944;6.932;2022-09-09T11:31:38;2.07;;;1.00;;
7340;SDS011;6870;50.944;6.932;2022-09-09T11:34:16;2.70;;;1.00;;
7340;SDS011;6870;50.944;6.932;2022-09-09T11:37:08;3.40;;;0.90;;
7340;SDS011;6870;50.944;6.932;2022-09-09T11:40:14;2.60;;;0.90;;
7340;SDS011;6870;50.944;6.932;2022-09-09T11:42:46;3.63;;;0.80;;
7340;SDS011;6870;50.944;6.932;2022-09-09T11:45:20;3.80;;;1.13;;
7340;SDS011;6870;50.944;6.932;2022-09-09T11:47:53;2.43;;;1.00;;
7340;SDS011;6870;50.944;6.932;2022-09-09T11:50:27;1.80;;;0.90;;
7340;SDS011;6870;50.944;6.932;2022-09-09T11:56:10;1.33;;;0.90;;
7340;SDS011;6870;50.944;6.932;2022-09-09T11:58:41;1.63;;;0.80;;
7340;SDS011;6870;50.944;6.932;2022-09-09T12:01:14;1.73;;;0.97;;
7340;SDS011;6870;50.944;6.932;2022-09-09T12:03:55;2.20;;;1.07;;
7340;SDS011;6870;50.944;6.932;2022-09-09T12:06:48;2.90;;;1.23;;
7340;SDS011;6870;50.944;6.932;2022-09-09T12:09:22;2.90;;;1.00;;
7340;SDS011;6870;50.944;6.932;2022-09-09T12:12:17;2.73;;;0.90;;
7340;SDS011;6870;50.944;6.932;2022-09-09T12:14:55;2.23;;;0.80;;
7340;SDS011;6870;50.944;6.932;2022-09-09T12:17:50;1.27;;;0.87;;
7340;SDS011;6870;50.944;6.932;2022-09-09T12:20:20;2.17;;;1.20;;
7340;SDS011;6870;50.944;6.932;2022-09-09T12:22:55;2.17;;;0.90;;
7340;SDS011;6870;50.944;6.932;2022-09-09T12:25:35;3.60;;;0.70;;
7340;SDS011;6870;50.944;6.932;2022-09-09T12:28:21;2.77;;;1.10;;
7340;SDS011;6870;50.944;6.932;2022-09-09T12:30:56;2.27;;;0.80;;
7340;SDS011;6870;50.944;6.932;2022-09-09T12:33:33;1.17;;;0.87;;
7340;SDS011;6870;50.944;6.932;2022-09-09T12:36:03;2.30;;;0.63;;
7340;SDS011;6870;50.944;6.932;2022-09-09T12:38:38;1.80;;;0.93;;
7340;SDS011;6870;50.944;6.932;2022-09-09T12:41:16;1.57;;;0.83;;
7340;SDS011;6870;50.944;6.932;2022-09-09T12:43:48;3.13;;;1.00;;
7340;SDS011;6870;50.944;6.932;2022-09-09T12:46:24;1.87;;;0.80;;
7340;SDS011;6870;50.944;6.932;2022-09-09T12:49:02;1.77;;;1.23;;
7340;SDS011;6870;50.944;6.932;2022-09-09T12:51:32;2.37;;;0.80;;
7340;SDS011;6870;50.944;6.932;2022-09-09T12:54:01;1.27;;;0.70;;
7340;SDS011;6870;50.944;6.932;2022-09-09T12:56:31;1.23;;;0.90;;
7340;SDS011;6870;50.944;6.932;2022-09-09T12:59:03;2.23;;;1.10;;
7340;SDS011;6870;50.944;6.932;2022-09-09T13:01:32;3.10;;;0.90;;
7340;SDS011;6870;50.944;6.932;2022-09-09T13:04:01;1.90;;;0.90;;
7340;SDS011;6870;50.944;6.932;2022-09-09T13:06:30;1.77;;;1.20;;
7340;SDS011;6870;50.944;6.932;2022-09-09T13:09:00;1.70;;;0.70;;
7340;SDS011;6870;50.944;6.932;2022-09-09T13:11:31;3.03;;;1.03;;
7340;SDS011;6870;50.944;6.932;2022-09-09T13:14:05;1.50;;;0.70;;
7340;SDS011;6870;50.944;6.932;2022-09-09T13:16:39;1.93;;;0.90;;
7340;SDS011;6870;50.944;6.932;2022-09-09T13:19:08;3.80;;;1.17;;
7340;SDS011;6870;50.944;6.932;2022-09-09T13:21:42;2.37;;;1.20;;
7340;SDS011;6870;50.944;6.932;2022-09-09T13:24:25;1.63;;;0.70;;
7340;SDS011;6870;50.944;6.932;2022-09-09T13:26:57;2.33;;;1.00;;
7340;SDS011;6870;50.944;6.932;2022-09-09T13:29:30;1.10;;;0.80;;
7340;SDS011;6870;50.944;6.932;2022-09-09T13:32:03;2.00;;;0.60;;
7340;SDS011;6870;50.944;6.932;2022-09-09T13:34:34;1.30;;;0.77;;
7340;SDS011;6870;50.944;6.932;2022-09-09T13:37:03;1.60;;;0.80;;
7340;SDS011;6870;50.944;6.932;2022-09-09T13:39:34;1.63;;;0.90;;
7340;SDS011;6870;50.944;6.932;2022-09-09T13:42:04;1.63;;;0.77;;
7340;SDS011;6870;50.944;6.932;2022-09-09T13:44:36;2.37;;;0.83;;
7340;SDS011;6870;50.944;6.932;2022-09-09T13:47:17;1.30;;;0.80;;
7340;SDS011;6870;50.944;6.932;2022-09-09T13:49:47;2.13;;;0.80;;
7340;SDS011;6870;50.944;6.932;2022-09-09T13:52:16;2.37;;;0.70;;
7340;SDS011;6870;50.944;6.932;2022-09-09T13:54:47;1.27;;;0.67;;
7340;SDS011;6870;50.944;6.932;2022-09-09T13:57:18;1.93;;;0.80;;
7340;SDS011;6870;50.944;6.932;2022-09-09T13:59:49;1.40;;;0.87;;
7340;SDS011;6870;50.944;6.932;2022-09-09T14:02:30;1.17;;;0.97;;
7340;SDS011;6870;50.944;6.932;2022-09-09T14:04:58;2.47;;;1.33;;
7340;SDS011;6870;50.944;6.932;2022-09-09T14:07:26;1.83;;;0.73;;
7340;SDS011;6870;50.944;6.932;2022-09-09T14:09:55;1.50;;;0.87;;
7340;SDS011;6870;50.944;6.932;2022-09-09T14:12:23;1.70;;;0.63;;
7340;SDS011;6870;50.944;6.932;2022-09-09T14:14:53;1.93;;;0.90;;
7340;SDS011;6870;50.944;6.932;2022-09-09T14:17:21;2.33;;;1.13;;
7340;SDS011;6870;50.944;6.932;2022-09-09T14:19:49;1.83;;;0.87;;
7340;SDS011;6870;50.944;6.932;2022-09-09T14:22:17;1.60;;;0.90;;
7340;SDS011;6870;50.944;6.932;2022-09-09T14:24:44;1.37;;;1.00;;
7340;SDS011;6870;50.944;6.932;2022-09-09T14:27:13;1.77;;;0.80;;
7340;SDS011;6870;50.944;6.932;2022-09-09T14:29:41;1.40;;;0.80;;
7340;SDS011;6870;50.944;6.932;2022-09-09T14:32:11;1.40;;;0.80;;
7340;SDS011;6870;50.944;6.932;2022-09-09T14:34:39;2.50;;;0.83;;
7340;SDS011;6870;50.944;6.932;2022-09-09T14:37:07;0.80;;;0.67;;
7340;SDS011;6870;50.944;6.932;2022-09-09T14:39:35;2.60;;;1.00;;
7340;SDS011;6870;50.944;6.932;2022-09-09T14:42:03;2.27;;;0.90;;
7340;SDS011;6870;50.944;6.932;2022-09-09T14:44:32;2.50;;;0.93;;
7340;SDS011;6870;50.944;6.932;2022-09-09T14:47:00;1.43;;;0.80;;
7340;SDS011;6870;50.944;6.932;2022-09-09T14:49:30;1.60;;;0.80;;
7340;SDS011;6870;50.944;6.932;2022-09-09T14:51:58;1.20;;;0.97;;
7340;SDS011;6870;50.944;6.932;2022-09-09T14:54:26;2.80;;;1.23;;
7340;SDS011;6870;50.944;6.932;2022-09-09T14:56:54;3.60;;;1.07;;
7340;SDS011;6870;50.944;6.932;2022-09-09T14:59:23;1.40;;;0.90;;
7340;SDS011;6870;50.944;6.932;2022-09-09T15:01:52;3.20;;;0.90;;
7340;SDS011;6870;50.944;6.932;2022-09-09T15:04:21;2.57;;;0.80;;
7340;SDS011;6870;50.944;6.932;2022-09-09T15:06:50;4.40;;;1.00;;
7340;SDS011;6870;50.944;6.932;2022-09-09T15:09:19;2.63;;;0.90;;
7340;SDS011;6870;50.944;6.932;2022-09-09T15:11:47;1.57;;;0.90;;
7340;SDS011;6870;50.944;6.932;2022-09-09T15:14:15;2.83;;;1.00;;
7340;SDS011;6870;50.944;6.932;2022-09-09T15:16:50;1.23;;;0.93;;
7340;SDS011;6870;50.944;6.932;2022-09-09T15:19:19;1.63;;;0.90;;
7340;SDS011;6870;50.944;6.932;2022-09-09T15:21:47;1.30;;;0.90;;
7340;SDS011;6870;50.944;6.932;2022-09-09T15:24:16;1.93;;;1.07;;
7340;SDS011;6870;50.944;6.932;2022-09-09T15:26:44;1.20;;;0.67;;
7340;SDS011;6870;50.944;6.932;2022-09-09T15:29:12;1.47;;;0.90;;
7340;SDS011;6870;50.944;6.932;2022-09-09T15:31:40;1.27;;;0.80;;
7340;SDS011;6870;50.944;6.932;2022-09-09T15:34:08;1.40;;;0.97;;
7340;SDS011;6870;50.944;6.932;2022-09-09T15:36:36;2.77;;;0.90;;
7340;SDS011;6870;50.944;6.932;2022-09-09T15:39:06;1.63;;;0.70;;
7340;SDS011;6870;50.944;6.932;2022-09-09T15:41:40;1.60;;;0.70;;
7340;SDS011;6870;50.944;6.932;2022-09-09T15:44:08;1.80;;;0.70;;
7340;SDS011;6870;50.944;6.932;2022-09-09T15:46:38;1.40;;;0.50;;
7340;SDS011;6870;50.944;6.932;2022-09-09T15:49:09;1.13;;;0.73;;
7340;SDS011;6870;50.944;6.932;2022-09-09T15:51:39;1.97;;;0.70;;
7340;SDS011;6870;50.944;6.932;2022-09-09T15:54:10;1.30;;;0.80;;
7340;SDS011;6870;50.944;6.932;2022-09-09T15:56:44;2.20;;;0.90;;